sensor_id;sensor_type;location;lat;lon;timestamp;P1;durP1;ratioP1;P2;durP2;ratioP2
41966;SDS011;27656;53.068;8.818;2023-06-04T00:01:11;7.30;;;2.53;;
41966;SDS011;27656;53.068;8.818;2023-06-04T00:03:41;5.23;;;2.60;;
41966;SDS011;27656;53.068;8.818;2023-06-04T00:06:08;5.13;;;2.27;;
41966;SDS011;27656;53.068;8.818;2023-06-04T00:08:35;5.57;;;2.20;;
41966;SDS011;27656;53.068;8.818;2023-06-04T00:11:01;4.90;;;2.40;;
41966;SDS011;27656;53.068;8.818;2023-06-04T00:13:28;4.77;;;2.50;;
41966;SDS011;27656;53.068;8.818;2023-06-04T00:15:54;3.50;;;1.97;;
41966;SDS011;27656;53.068;8.818;2023-06-04T00:18:21;4.03;;;2.23;;
41966;SDS011;27656;53.068;8.818;2023-06-04T00:20:47;5.40;;;2.23;;
41966;SDS011;27656;53.068;8.818;2023-06-04T00:23:14;4.13;;;1.87;;
41966;SDS011;27656;53.068;8.818;2023-06-04T00:25:40;2.87;;;1.90;;
41966;SDS011;27656;53.068;8.818;2023-06-04T00:28:07;4.40;;;2.27;;
41966;SDS011;27656;53.068;8.818;2023-06-04T00:30:33;5.03;;;2.53;;
41966;SDS011;27656;53.068;8.818;2023-06-04T00:33:00;5.80;;;2.30;;
41966;SDS011;27656;53.068;8.818;2023-06-04T00:35:27;3.80;;;2.40;;
41966;SDS011;27656;53.068;8.818;2023-06-04T00:37:53;6.57;;;2.80;;
41966;SDS011;27656;53.068;8.818;2023-06-04T00:40:20;5.63;;;2.73;;
41966;SDS011;27656;53.068;8.818;2023-06-04T00:42:47;6.90;;;2.90;;
41966;SDS011;27656;53.068;8.818;2023-06-04T00:45:15;3.97;;;2.40;;
41966;SDS011;27656;53.068;8.818;2023-06-04T00:47:44;6.43;;;2.00;;
41966;SDS011;27656;53.068;8.818;2023-06-04T00:50:11;8.20;;;3.07;;
41966;SDS011;27656;53.068;8.818;2023-06-04T00:52:37;4.63;;;2.37;;
41966;SDS011;27656;53.068;8.818;2023-06-04T00:55:04;6.37;;;2.33;;
41966;SDS011;27656;53.068;8.818;2023-06-04T00:57:31;7.83;;;2.70;;
41966;SDS011;27656;53.068;8.818;2023-06-04T00:59:57;5.03;;;2.43;;
41966;SDS011;27656;53.068;8.818;2023-06-04T01:02:24;7.67;;;2.57;;
41966;SDS011;27656;53.068;8.818;2023-06-04T01:04:58;4.90;;;2.53;;
41966;SDS011;27656;53.068;8.818;2023-06-04T01:07:34;6.97;;;2.30;;
41966;SDS011;27656;53.068;8.818;2023-06-04T01:10:01;6.70;;;2.93;;
41966;SDS011;27656;53.068;8.818;2023-06-04T01:12:28;4.87;;;2.77;;
41966;SDS011;27656;53.068;8.818;2023-06-04T01:14:55;7.80;;;2.73;;
41966;SDS011;27656;53.068;8.818;2023-06-04T01:17:36;8.90;;;2.80;;
41966;SDS011;27656;53.068;8.818;2023-06-04T01:20:18;7.03;;;2.70;;
41966;SDS011;27656;53.068;8.818;2023-06-04T01:22:54;4.37;;;2.03;;
41966;SDS011;27656;53.068;8.818;2023-06-04T01:25:30;7.90;;;2.50;;
41966;SDS011;27656;53.068;8.818;2023-06-04T01:28:02;5.63;;;2.60;;
41966;SDS011;27656;53.068;8.818;2023-06-04T01:30:30;5.13;;;2.60;;
41966;SDS011;27656;53.068;8.818;2023-06-04T01:33:01;3.57;;;2.33;;
41966;SDS011;27656;53.068;8.818;2023-06-04T01:35:28;7.60;;;2.50;;
41966;SDS011;27656;53.068;8.818;2023-06-04T01:37:58;6.03;;;2.30;;
41966;SDS011;27656;53.068;8.818;2023-06-04T01:40:25;6.10;;;2.27;;
41966;SDS011;27656;53.068;8.818;2023-06-04T01:42:52;5.63;;;2.00;;
41966;SDS011;27656;53.068;8.818;2023-06-04T01:45:20;5.30;;;2.53;;
41966;SDS011;27656;53.068;8.818;2023-06-04T01:47:51;3.20;;;1.97;;
41966;SDS011;27656;53.068;8.818;2023-06-04T01:50:18;5.37;;;2.13;;
41966;SDS011;27656;53.068;8.818;2023-06-04T01:52:44;5.20;;;2.17;;
41966;SDS011;27656;53.068;8.818;2023-06-04T01:55:11;8.93;;;2.27;;
41966;SDS011;27656;53.068;8.818;2023-06-04T01:57:39;7.13;;;2.90;;
41966;SDS011;27656;53.068;8.818;2023-06-04T02:00:07;6.50;;;2.20;;
41966;SDS011;27656;53.068;8.818;2023-06-04T02:02:36;7.23;;;2.50;;
41966;SDS011;27656;53.068;8.818;2023-06-04T02:05:06;6.57;;;2.30;;
41966;SDS011;27656;53.068;8.818;2023-06-04T02:07:40;9.00;;;2.33;;
41966;SDS011;27656;53.068;8.818;2023-06-04T02:12:51;4.63;;;2.20;;
41966;SDS011;27656;53.068;8.818;2023-06-04T02:15:23;4.63;;;2.77;;
41966;SDS011;27656;53.068;8.818;2023-06-04T02:17:50;6.63;;;2.43;;
41966;SDS011;27656;53.068;8.818;2023-06-04T02:20:21;3.97;;;2.10;;
41966;SDS011;27656;53.068;8.818;2023-06-04T02:22:48;5.33;;;2.33;;
41966;SDS011;27656;53.068;8.818;2023-06-04T02:25:14;5.63;;;2.90;;
41966;SDS011;27656;53.068;8.818;2023-06-04T02:27:42;3.40;;;2.00;;
41966;SDS011;27656;53.068;8.818;2023-06-04T02:30:09;6.90;;;2.50;;
41966;SDS011;27656;53.068;8.818;2023-06-04T02:32:35;4.73;;;2.77;;
41966;SDS011;27656;53.068;8.818;2023-06-04T02:35:02;3.93;;;2.50;;
41966;SDS011;27656;53.068;8.818;2023-06-04T02:37:29;6.77;;;2.90;;
41966;SDS011;27656;53.068;8.818;2023-06-04T02:39:56;4.47;;;2.33;;
41966;SDS011;27656;53.068;8.818;2023-06-04T02:42:23;7.77;;;2.60;;
41966;SDS011;27656;53.068;8.818;2023-06-04T02:44:49;4.90;;;2.60;;
41966;SDS011;27656;53.068;8.818;2023-06-04T02:47:16;7.27;;;2.77;;
41966;SDS011;27656;53.068;8.818;2023-06-04T02:49:42;10.00;;;3.07;;
41966;SDS011;27656;53.068;8.818;2023-06-04T02:52:08;3.77;;;2.17;;
41966;SDS011;27656;53.068;8.818;2023-06-04T02:54:35;6.30;;;2.50;;
41966;SDS011;27656;53.068;8.818;2023-06-04T02:57:02;5.23;;;2.70;;
41966;SDS011;27656;53.068;8.818;2023-06-04T02:59:28;5.57;;;2.47;;
41966;SDS011;27656;53.068;8.818;2023-06-04T03:01:55;4.43;;;2.40;;
41966;SDS011;27656;53.068;8.818;2023-06-04T03:04:21;12.33;;;2.80;;
41966;SDS011;27656;53.068;8.818;2023-06-04T03:06:48;3.30;;;2.47;;
41966;SDS011;27656;53.068;8.818;2023-06-04T03:09:18;5.03;;;2.50;;
41966;SDS011;27656;53.068;8.818;2023-06-04T03:11:45;7.27;;;2.80;;
41966;SDS011;27656;53.068;8.818;2023-06-04T03:14:11;7.10;;;2.43;;
41966;SDS011;27656;53.068;8.818;2023-06-04T03:16:38;6.97;;;2.90;;
41966;SDS011;27656;53.068;8.818;2023-06-04T03:19:06;6.70;;;2.70;;
41966;SDS011;27656;53.068;8.818;2023-06-04T03:21:32;4.77;;;2.83;;
41966;SDS011;27656;53.068;8.818;2023-06-04T03:23:59;7.30;;;2.83;;
41966;SDS011;27656;53.068;8.818;2023-06-04T03:26:26;7.90;;;2.57;;
41966;SDS011;27656;53.068;8.818;2023-06-04T03:28:52;3.90;;;2.63;;
41966;SDS011;27656;53.068;8.818;2023-06-04T03:31:19;4.27;;;2.80;;
41966;SDS011;27656;53.068;8.818;2023-06-04T03:33:45;6.57;;;2.70;;
41966;SDS011;27656;53.068;8.818;2023-06-04T03:36:12;3.80;;;2.50;;
41966;SDS011;27656;53.068;8.818;2023-06-04T03:38:38;8.70;;;2.87;;
41966;SDS011;27656;53.068;8.818;2023-06-04T03:41:05;7.57;;;2.93;;
41966;SDS011;27656;53.068;8.818;2023-06-04T03:43:31;8.63;;;2.67;;
41966;SDS011;27656;53.068;8.818;2023-06-04T03:45:58;5.33;;;2.63;;
41966;SDS011;27656;53.068;8.818;2023-06-04T03:48:24;7.43;;;3.13;;
41966;SDS011;27656;53.068;8.818;2023-06-04T03:50:51;6.57;;;3.17;;
41966;SDS011;27656;53.068;8.818;2023-06-04T03:53:17;6.43;;;2.57;;
41966;SDS011;27656;53.068;8.818;2023-06-04T03:55:44;7.37;;;2.77;;
41966;SDS011;27656;53.068;8.818;2023-06-04T03:58:10;6.90;;;2.60;;
41966;SDS011;27656;53.068;8.818;2023-06-04T04:00:38;5.37;;;2.73;;
41966;SDS011;27656;53.068;8.818;2023-06-04T04:03:04;8.13;;;2.73;;
41966;SDS011;27656;53.068;8.818;2023-06-04T04:05:34;7.37;;;3.13;;
41966;SDS011;27656;53.068;8.818;2023-06-04T04:08:02;8.63;;;3.53;;
41966;SDS011;27656;53.068;8.818;2023-06-04T04:10:29;7.27;;;2.70;;
41966;SDS011;27656;53.068;8.818;2023-06-04T04:12:55;4.40;;;3.07;;
41966;SDS011;27656;53.068;8.818;2023-06-04T04:15:23;5.97;;;3.03;;
41966;SDS011;27656;53.068;8.818;2023-06-04T04:17:50;6.70;;;2.90;;
41966;SDS011;27656;53.068;8.818;2023-06-04T04:20:17;6.57;;;2.70;;
41966;SDS011;27656;53.068;8.818;2023-06-04T04:22:44;4.97;;;3.13;;
41966;SDS011;27656;53.068;8.818;2023-06-04T04:25:10;11.23;;;2.90;;
41966;SDS011;27656;53.068;8.818;2023-06-04T04:27:37;6.67;;;3.13;;
41966;SDS011;27656;53.068;8.818;2023-06-04T04:30:06;7.50;;;3.03;;
41966;SDS011;27656;53.068;8.818;2023-06-04T04:32:33;7.97;;;3.40;;
41966;SDS011;27656;53.068;8.818;2023-06-04T04:35:00;10.43;;;3.27;;
41966;SDS011;27656;53.068;8.818;2023-06-04T04:37:26;7.00;;;3.67;;
41966;SDS011;27656;53.068;8.818;2023-06-04T04:39:53;4.90;;;3.23;;
41966;SDS011;27656;53.068;8.818;2023-06-04T04:42:19;7.60;;;3.57;;
41966;SDS011;27656;53.068;8.818;2023-06-04T04:44:46;11.67;;;4.03;;
41966;SDS011;27656;53.068;8.818;2023-06-04T04:47:17;8.40;;;3.53;;
41966;SDS011;27656;53.068;8.818;2023-06-04T04:49:44;7.23;;;3.70;;
41966;SDS011;27656;53.068;8.818;2023-06-04T04:52:13;9.10;;;4.03;;
41966;SDS011;27656;53.068;8.818;2023-06-04T04:54:40;8.07;;;4.00;;
41966;SDS011;27656;53.068;8.818;2023-06-04T04:57:07;8.37;;;3.80;;
41966;SDS011;27656;53.068;8.818;2023-06-04T04:59:39;12.10;;;4.00;;
41966;SDS011;27656;53.068;8.818;2023-06-04T05:02:06;13.77;;;4.33;;
41966;SDS011;27656;53.068;8.818;2023-06-04T05:04:32;10.37;;;4.90;;
41966;SDS011;27656;53.068;8.818;2023-06-04T05:06:59;8.73;;;5.53;;
41966;SDS011;27656;53.068;8.818;2023-06-04T05:09:26;13.80;;;7.73;;
41966;SDS011;27656;53.068;8.818;2023-06-04T05:11:52;14.70;;;8.33;;
41966;SDS011;27656;53.068;8.818;2023-06-04T05:14:19;16.40;;;8.83;;
41966;SDS011;27656;53.068;8.818;2023-06-04T05:16:45;15.43;;;11.53;;
41966;SDS011;27656;53.068;8.818;2023-06-04T05:19:18;16.33;;;12.23;;
41966;SDS011;27656;53.068;8.818;2023-06-04T05:21:44;14.57;;;10.37;;
41966;SDS011;27656;53.068;8.818;2023-06-04T05:24:10;15.70;;;11.00;;
41966;SDS011;27656;53.068;8.818;2023-06-04T05:26:37;13.17;;;6.90;;
41966;SDS011;27656;53.068;8.818;2023-06-04T05:29:05;8.13;;;5.90;;
41966;SDS011;27656;53.068;8.818;2023-06-04T05:31:32;10.13;;;6.53;;
41966;SDS011;27656;53.068;8.818;2023-06-04T05:34:03;10.67;;;6.80;;
41966;SDS011;27656;53.068;8.818;2023-06-04T05:36:32;8.90;;;6.00;;
41966;SDS011;27656;53.068;8.818;2023-06-04T05:38:59;11.00;;;5.53;;
41966;SDS011;27656;53.068;8.818;2023-06-04T05:41:26;11.17;;;5.93;;
41966;SDS011;27656;53.068;8.818;2023-06-04T05:43:53;9.13;;;5.13;;
41966;SDS011;27656;53.068;8.818;2023-06-04T05:46:20;7.90;;;4.53;;
41966;SDS011;27656;53.068;8.818;2023-06-04T05:48:48;8.53;;;4.50;;
41966;SDS011;27656;53.068;8.818;2023-06-04T05:51:14;13.13;;;4.73;;
41966;SDS011;27656;53.068;8.818;2023-06-04T05:53:41;9.87;;;4.80;;
41966;SDS011;27656;53.068;8.818;2023-06-04T05:56:08;13.90;;;4.33;;
41966;SDS011;27656;53.068;8.818;2023-06-04T05:58:34;6.97;;;4.00;;
41966;SDS011;27656;53.068;8.818;2023-06-04T06:01:01;8.77;;;4.33;;
41966;SDS011;27656;53.068;8.818;2023-06-04T06:03:27;5.97;;;3.53;;
41966;SDS011;27656;53.068;8.818;2023-06-04T06:05:54;9.47;;;3.20;;
41966;SDS011;27656;53.068;8.818;2023-06-04T06:08:21;8.00;;;3.60;;
41966;SDS011;27656;53.068;8.818;2023-06-04T06:10:47;6.77;;;3.67;;
41966;SDS011;27656;53.068;8.818;2023-06-04T06:13:14;6.97;;;3.47;;
41966;SDS011;27656;53.068;8.818;2023-06-04T06:15:41;6.67;;;3.40;;
41966;SDS011;27656;53.068;8.818;2023-06-04T06:18:08;8.53;;;3.23;;
41966;SDS011;27656;53.068;8.818;2023-06-04T06:20:35;6.17;;;2.93;;
41966;SDS011;27656;53.068;8.818;2023-06-04T06:23:07;6.27;;;3.47;;
41966;SDS011;27656;53.068;8.818;2023-06-04T06:25:34;7.17;;;3.63;;
41966;SDS011;27656;53.068;8.818;2023-06-04T06:28:01;8.47;;;3.60;;
41966;SDS011;27656;53.068;8.818;2023-06-04T06:30:27;10.37;;;3.63;;
41966;SDS011;27656;53.068;8.818;2023-06-04T06:32:54;11.03;;;3.30;;
41966;SDS011;27656;53.068;8.818;2023-06-04T06:35:22;11.23;;;3.83;;
41966;SDS011;27656;53.068;8.818;2023-06-04T06:37:48;11.00;;;3.43;;
41966;SDS011;27656;53.068;8.818;2023-06-04T06:40:15;7.60;;;3.27;;
41966;SDS011;27656;53.068;8.818;2023-06-04T06:42:41;7.07;;;3.37;;
41966;SDS011;27656;53.068;8.818;2023-06-04T06:45:08;7.37;;;3.20;;
41966;SDS011;27656;53.068;8.818;2023-06-04T06:47:35;9.93;;;3.17;;
41966;SDS011;27656;53.068;8.818;2023-06-04T06:50:01;8.40;;;3.40;;
41966;SDS011;27656;53.068;8.818;2023-06-04T06:52:28;5.23;;;2.53;;
41966;SDS011;27656;53.068;8.818;2023-06-04T06:54:56;6.37;;;2.77;;
41966;SDS011;27656;53.068;8.818;2023-06-04T06:57:23;5.20;;;2.47;;
41966;SDS011;27656;53.068;8.818;2023-06-04T06:59:49;6.03;;;2.70;;
41966;SDS011;27656;53.068;8.818;2023-06-04T07:02:18;4.67;;;2.40;;
41966;SDS011;27656;53.068;8.818;2023-06-04T07:04:44;7.87;;;2.50;;
41966;SDS011;27656;53.068;8.818;2023-06-04T07:07:11;6.23;;;2.70;;
41966;SDS011;27656;53.068;8.818;2023-06-04T07:09:37;8.23;;;2.60;;
41966;SDS011;27656;53.068;8.818;2023-06-04T07:12:04;4.23;;;2.20;;
41966;SDS011;27656;53.068;8.818;2023-06-04T07:14:30;5.90;;;2.57;;
41966;SDS011;27656;53.068;8.818;2023-06-04T07:16:57;4.40;;;2.50;;
41966;SDS011;27656;53.068;8.818;2023-06-04T07:19:24;6.13;;;2.73;;
41966;SDS011;27656;53.068;8.818;2023-06-04T07:21:50;6.60;;;2.50;;
41966;SDS011;27656;53.068;8.818;2023-06-04T07:24:17;3.93;;;2.40;;
41966;SDS011;27656;53.068;8.818;2023-06-04T07:26:43;6.40;;;2.33;;
41966;SDS011;27656;53.068;8.818;2023-06-04T07:29:10;6.27;;;2.50;;
41966;SDS011;27656;53.068;8.818;2023-06-04T07:31:36;4.30;;;2.37;;
41966;SDS011;27656;53.068;8.818;2023-06-04T07:34:03;7.00;;;2.47;;
41966;SDS011;27656;53.068;8.818;2023-06-04T07:36:29;6.50;;;2.80;;
41966;SDS011;27656;53.068;8.818;2023-06-04T07:38:57;5.63;;;2.73;;
41966;SDS011;27656;53.068;8.818;2023-06-04T07:41:23;7.90;;;2.47;;
41966;SDS011;27656;53.068;8.818;2023-06-04T07:43:51;5.37;;;2.10;;
41966;SDS011;27656;53.068;8.818;2023-06-04T07:46:18;4.23;;;2.47;;
41966;SDS011;27656;53.068;8.818;2023-06-04T07:48:45;5.90;;;2.60;;
41966;SDS011;27656;53.068;8.818;2023-06-04T07:51:12;6.77;;;3.13;;
41966;SDS011;27656;53.068;8.818;2023-06-04T07:53:39;5.23;;;2.80;;
41966;SDS011;27656;53.068;8.818;2023-06-04T07:56:06;8.30;;;2.40;;
41966;SDS011;27656;53.068;8.818;2023-06-04T07:58:32;6.13;;;2.40;;
41966;SDS011;27656;53.068;8.818;2023-06-04T08:00:59;8.90;;;2.80;;
41966;SDS011;27656;53.068;8.818;2023-06-04T08:03:25;8.30;;;2.57;;
41966;SDS011;27656;53.068;8.818;2023-06-04T08:05:52;4.67;;;2.40;;
41966;SDS011;27656;53.068;8.818;2023-06-04T08:08:18;3.73;;;2.17;;
41966;SDS011;27656;53.068;8.818;2023-06-04T08:10:45;6.97;;;2.23;;
41966;SDS011;27656;53.068;8.818;2023-06-04T08:13:12;4.50;;;2.20;;
41966;SDS011;27656;53.068;8.818;2023-06-04T08:15:38;8.13;;;2.37;;
41966;SDS011;27656;53.068;8.818;2023-06-04T08:18:05;6.17;;;2.50;;
41966;SDS011;27656;53.068;8.818;2023-06-04T08:20:32;5.73;;;1.83;;
41966;SDS011;27656;53.068;8.818;2023-06-04T08:22:58;3.17;;;1.77;;
41966;SDS011;27656;53.068;8.818;2023-06-04T08:25:25;5.00;;;1.53;;
41966;SDS011;27656;53.068;8.818;2023-06-04T08:27:52;3.80;;;1.60;;
41966;SDS011;27656;53.068;8.818;2023-06-04T08:30:19;9.77;;;2.77;;
41966;SDS011;27656;53.068;8.818;2023-06-04T08:32:45;6.27;;;1.93;;
41966;SDS011;27656;53.068;8.818;2023-06-04T08:35:11;4.93;;;2.00;;
41966;SDS011;27656;53.068;8.818;2023-06-04T08:37:39;9.37;;;2.13;;
41966;SDS011;27656;53.068;8.818;2023-06-04T08:40:06;5.10;;;1.80;;
41966;SDS011;27656;53.068;8.818;2023-06-04T08:42:37;3.53;;;1.67;;
41966;SDS011;27656;53.068;8.818;2023-06-04T08:45:13;4.87;;;1.60;;
41966;SDS011;27656;53.068;8.818;2023-06-04T08:47:47;4.67;;;1.80;;
41966;SDS011;27656;53.068;8.818;2023-06-04T08:50:16;4.70;;;1.70;;
41966;SDS011;27656;53.068;8.818;2023-06-04T08:52:44;5.77;;;1.87;;
41966;SDS011;27656;53.068;8.818;2023-06-04T08:55:11;4.67;;;1.67;;
41966;SDS011;27656;53.068;8.818;2023-06-04T08:57:39;5.43;;;1.70;;
41966;SDS011;27656;53.068;8.818;2023-06-04T09:00:09;5.73;;;1.40;;
41966;SDS011;27656;53.068;8.818;2023-06-04T09:02:36;5.07;;;1.63;;
41966;SDS011;27656;53.068;8.818;2023-06-04T09:05:06;3.70;;;1.40;;
41966;SDS011;27656;53.068;8.818;2023-06-04T09:07:36;4.83;;;1.63;;
41966;SDS011;27656;53.068;8.818;2023-06-04T09:10:06;4.17;;;1.60;;
41966;SDS011;27656;53.068;8.818;2023-06-04T09:12:40;7.07;;;1.50;;
41966;SDS011;27656;53.068;8.818;2023-06-04T09:15:10;1.77;;;1.27;;
41966;SDS011;27656;53.068;8.818;2023-06-04T09:17:36;3.70;;;1.30;;
41966;SDS011;27656;53.068;8.818;2023-06-04T09:20:03;5.03;;;1.80;;
41966;SDS011;27656;53.068;8.818;2023-06-04T09:22:35;3.57;;;1.70;;
41966;SDS011;27656;53.068;8.818;2023-06-04T09:25:06;4.77;;;1.30;;
41966;SDS011;27656;53.068;8.818;2023-06-04T09:27:39;3.07;;;1.40;;
41966;SDS011;27656;53.068;8.818;2023-06-04T09:30:06;3.03;;;1.10;;
41966;SDS011;27656;53.068;8.818;2023-06-04T09:32:35;3.93;;;1.40;;
41966;SDS011;27656;53.068;8.818;2023-06-04T09:35:12;3.90;;;1.37;;
41966;SDS011;27656;53.068;8.818;2023-06-04T09:37:41;3.93;;;1.33;;
41966;SDS011;27656;53.068;8.818;2023-06-04T09:40:08;3.20;;;1.50;;
41966;SDS011;27656;53.068;8.818;2023-06-04T09:42:42;3.37;;;1.40;;
41966;SDS011;27656;53.068;8.818;2023-06-04T09:45:09;4.77;;;1.40;;
41966;SDS011;27656;53.068;8.818;2023-06-04T09:47:40;1.97;;;1.00;;
41966;SDS011;27656;53.068;8.818;2023-06-04T09:50:07;3.97;;;1.83;;
41966;SDS011;27656;53.068;8.818;2023-06-04T09:52:34;4.63;;;1.77;;
41966;SDS011;27656;53.068;8.818;2023-06-04T09:55:01;4.40;;;1.53;;
41966;SDS011;27656;53.068;8.818;2023-06-04T09:57:29;5.53;;;1.30;;
41966;SDS011;27656;53.068;8.818;2023-06-04T09:59:56;5.37;;;1.80;;
41966;SDS011;27656;53.068;8.818;2023-06-04T10:02:23;2.43;;;1.27;;
41966;SDS011;27656;53.068;8.818;2023-06-04T10:04:54;3.67;;;1.50;;
41966;SDS011;27656;53.068;8.818;2023-06-04T10:07:25;5.57;;;1.40;;
41966;SDS011;27656;53.068;8.818;2023-06-04T10:09:52;4.37;;;1.20;;
41966;SDS011;27656;53.068;8.818;2023-06-04T10:12:21;2.73;;;0.97;;
41966;SDS011;27656;53.068;8.818;2023-06-04T10:14:52;2.47;;;1.07;;
41966;SDS011;27656;53.068;8.818;2023-06-04T10:17:22;3.13;;;1.33;;
41966;SDS011;27656;53.068;8.818;2023-06-04T10:19:49;5.80;;;1.27;;
41966;SDS011;27656;53.068;8.818;2023-06-04T10:22:20;3.30;;;1.20;;
41966;SDS011;27656;53.068;8.818;2023-06-04T10:24:47;6.17;;;1.40;;
41966;SDS011;27656;53.068;8.818;2023-06-04T10:27:13;3.37;;;1.20;;
41966;SDS011;27656;53.068;8.818;2023-06-04T10:29:43;2.10;;;1.07;;
41966;SDS011;27656;53.068;8.818;2023-06-04T10:32:11;3.80;;;1.17;;
41966;SDS011;27656;53.068;8.818;2023-06-04T10:34:38;3.40;;;1.13;;
41966;SDS011;27656;53.068;8.818;2023-06-04T10:37:05;4.13;;;1.50;;
41966;SDS011;27656;53.068;8.818;2023-06-04T10:39:32;3.30;;;1.10;;
41966;SDS011;27656;53.068;8.818;2023-06-04T10:42:02;3.13;;;1.40;;
41966;SDS011;27656;53.068;8.818;2023-06-04T10:44:30;3.60;;;1.20;;
41966;SDS011;27656;53.068;8.818;2023-06-04T10:46:56;2.83;;;1.20;;
41966;SDS011;27656;53.068;8.818;2023-06-04T10:49:30;8.97;;;1.30;;
41966;SDS011;27656;53.068;8.818;2023-06-04T10:52:09;4.20;;;1.20;;
41966;SDS011;27656;53.068;8.818;2023-06-04T10:54:36;1.70;;;1.00;;
41966;SDS011;27656;53.068;8.818;2023-06-04T10:57:17;3.13;;;1.20;;
41966;SDS011;27656;53.068;8.818;2023-06-04T10:59:57;3.10;;;1.40;;
41966;SDS011;27656;53.068;8.818;2023-06-04T11:02:25;3.50;;;1.70;;
41966;SDS011;27656;53.068;8.818;2023-06-04T11:05:04;2.40;;;1.10;;
41966;SDS011;27656;53.068;8.818;2023-06-04T11:07:43;3.13;;;1.20;;
41966;SDS011;27656;53.068;8.818;2023-06-04T11:10:13;3.10;;;1.50;;
41966;SDS011;27656;53.068;8.818;2023-06-04T11:12:49;1.90;;;1.40;;
41966;SDS011;27656;53.068;8.818;2023-06-04T11:15:26;5.43;;;1.73;;
41966;SDS011;27656;53.068;8.818;2023-06-04T11:17:54;2.67;;;1.30;;
41966;SDS011;27656;53.068;8.818;2023-06-04T11:20:22;5.93;;;1.73;;
41966;SDS011;27656;53.068;8.818;2023-06-04T11:22:53;2.60;;;1.20;;
41966;SDS011;27656;53.068;8.818;2023-06-04T11:25:23;3.03;;;1.33;;
41966;SDS011;27656;53.068;8.818;2023-06-04T11:27:51;2.73;;;1.30;;
41966;SDS011;27656;53.068;8.818;2023-06-04T11:30:19;4.70;;;1.30;;
41966;SDS011;27656;53.068;8.818;2023-06-04T11:32:46;3.60;;;1.83;;
41966;SDS011;27656;53.068;8.818;2023-06-04T11:35:12;5.03;;;1.50;;
41966;SDS011;27656;53.068;8.818;2023-06-04T11:37:39;2.90;;;1.50;;
41966;SDS011;27656;53.068;8.818;2023-06-04T11:42:43;4.93;;;1.40;;
41966;SDS011;27656;53.068;8.818;2023-06-04T11:45:12;3.20;;;1.40;;
41966;SDS011;27656;53.068;8.818;2023-06-04T11:47:41;5.53;;;1.50;;
41966;SDS011;27656;53.068;8.818;2023-06-04T11:50:11;2.83;;;1.20;;
41966;SDS011;27656;53.068;8.818;2023-06-04T11:52:37;5.10;;;1.50;;
41966;SDS011;27656;53.068;8.818;2023-06-04T11:55:05;2.70;;;1.20;;
41966;SDS011;27656;53.068;8.818;2023-06-04T11:57:36;3.60;;;1.30;;
41966;SDS011;27656;53.068;8.818;2023-06-04T12:00:03;2.43;;;1.50;;
41966;SDS011;27656;53.068;8.818;2023-06-04T12:02:54;3.57;;;1.40;;
41966;SDS011;27656;53.068;8.818;2023-06-04T12:05:23;2.57;;;1.43;;
41966;SDS011;27656;53.068;8.818;2023-06-04T12:07:50;2.70;;;1.30;;
41966;SDS011;27656;53.068;8.818;2023-06-04T12:10:18;2.50;;;1.33;;
41966;SDS011;27656;53.068;8.818;2023-06-04T12:12:45;2.47;;;1.50;;
41966;SDS011;27656;53.068;8.818;2023-06-04T12:15:12;1.60;;;1.10;;
41966;SDS011;27656;53.068;8.818;2023-06-04T12:17:52;1.57;;;1.23;;
41966;SDS011;27656;53.068;8.818;2023-06-04T12:20:32;2.37;;;1.40;;
41966;SDS011;27656;53.068;8.818;2023-06-04T12:22:58;2.43;;;1.50;;
41966;SDS011;27656;53.068;8.818;2023-06-04T12:25:25;2.27;;;1.20;;
41966;SDS011;27656;53.068;8.818;2023-06-04T12:27:52;5.57;;;1.33;;
41966;SDS011;27656;53.068;8.818;2023-06-04T12:30:19;4.70;;;2.50;;
41966;SDS011;27656;53.068;8.818;2023-06-04T12:32:46;5.00;;;1.60;;
41966;SDS011;27656;53.068;8.818;2023-06-04T12:35:12;5.70;;;1.40;;
41966;SDS011;27656;53.068;8.818;2023-06-04T12:37:40;6.50;;;1.70;;
41966;SDS011;27656;53.068;8.818;2023-06-04T12:40:07;4.80;;;1.40;;
41966;SDS011;27656;53.068;8.818;2023-06-04T12:42:33;3.00;;;1.20;;
41966;SDS011;27656;53.068;8.818;2023-06-04T12:45:00;3.37;;;1.50;;
41966;SDS011;27656;53.068;8.818;2023-06-04T12:47:27;2.23;;;1.30;;
41966;SDS011;27656;53.068;8.818;2023-06-04T12:49:53;2.40;;;1.23;;
41966;SDS011;27656;53.068;8.818;2023-06-04T12:52:20;3.90;;;1.50;;
41966;SDS011;27656;53.068;8.818;2023-06-04T12:54:47;3.47;;;1.50;;
41966;SDS011;27656;53.068;8.818;2023-06-04T12:57:14;2.53;;;1.37;;
41966;SDS011;27656;53.068;8.818;2023-06-04T12:59:41;4.23;;;1.60;;
41966;SDS011;27656;53.068;8.818;2023-06-04T13:02:07;3.43;;;1.53;;
41966;SDS011;27656;53.068;8.818;2023-06-04T13:04:34;4.93;;;1.80;;
41966;SDS011;27656;53.068;8.818;2023-06-04T13:07:00;2.33;;;1.30;;
41966;SDS011;27656;53.068;8.818;2023-06-04T13:09:27;4.87;;;1.40;;
41966;SDS011;27656;53.068;8.818;2023-06-04T13:11:58;2.40;;;1.37;;
41966;SDS011;27656;53.068;8.818;2023-06-04T13:14:24;4.10;;;1.33;;
41966;SDS011;27656;53.068;8.818;2023-06-04T13:16:51;7.23;;;1.70;;
41966;SDS011;27656;53.068;8.818;2023-06-04T13:19:18;2.50;;;1.43;;
41966;SDS011;27656;53.068;8.818;2023-06-04T13:21:46;5.80;;;1.60;;
41966;SDS011;27656;53.068;8.818;2023-06-04T13:24:13;3.20;;;1.93;;
41966;SDS011;27656;53.068;8.818;2023-06-04T13:26:40;3.73;;;1.50;;
41966;SDS011;27656;53.068;8.818;2023-06-04T13:29:08;2.77;;;1.50;;
41966;SDS011;27656;53.068;8.818;2023-06-04T13:31:34;6.03;;;1.70;;
41966;SDS011;27656;53.068;8.818;2023-06-04T13:34:01;5.67;;;1.53;;
41966;SDS011;27656;53.068;8.818;2023-06-04T13:36:47;4.10;;;1.87;;
41966;SDS011;27656;53.068;8.818;2023-06-04T13:39:14;8.97;;;2.07;;
41966;SDS011;27656;53.068;8.818;2023-06-04T13:41:40;3.73;;;1.63;;
41966;SDS011;27656;53.068;8.818;2023-06-04T13:44:07;5.43;;;2.00;;
41966;SDS011;27656;53.068;8.818;2023-06-04T13:46:34;4.07;;;1.97;;
41966;SDS011;27656;53.068;8.818;2023-06-04T13:49:01;6.23;;;1.90;;
41966;SDS011;27656;53.068;8.818;2023-06-04T13:51:28;6.70;;;1.97;;
41966;SDS011;27656;53.068;8.818;2023-06-04T13:53:56;6.23;;;1.93;;
41966;SDS011;27656;53.068;8.818;2023-06-04T13:56:22;5.17;;;1.83;;
41966;SDS011;27656;53.068;8.818;2023-06-04T13:58:49;6.07;;;2.80;;
41966;SDS011;27656;53.068;8.818;2023-06-04T14:01:16;5.53;;;2.10;;
41966;SDS011;27656;53.068;8.818;2023-06-04T14:03:43;6.93;;;1.90;;
41966;SDS011;27656;53.068;8.818;2023-06-04T14:06:10;4.10;;;1.93;;
41966;SDS011;27656;53.068;8.818;2023-06-04T14:08:39;4.80;;;1.90;;
41966;SDS011;27656;53.068;8.818;2023-06-04T14:11:05;9.47;;;2.90;;
41966;SDS011;27656;53.068;8.818;2023-06-04T14:13:32;3.57;;;1.77;;
41966;SDS011;27656;53.068;8.818;2023-06-04T14:15:59;8.60;;;1.93;;
41966;SDS011;27656;53.068;8.818;2023-06-04T14:18:26;5.03;;;1.90;;
41966;SDS011;27656;53.068;8.818;2023-06-04T14:20:52;5.20;;;1.90;;
41966;SDS011;27656;53.068;8.818;2023-06-04T14:23:19;8.10;;;1.90;;
41966;SDS011;27656;53.068;8.818;2023-06-04T14:25:46;7.50;;;2.20;;
41966;SDS011;27656;53.068;8.818;2023-06-04T14:28:13;5.07;;;2.10;;
41966;SDS011;27656;53.068;8.818;2023-06-04T14:30:39;8.30;;;2.40;;
41966;SDS011;27656;53.068;8.818;2023-06-04T14:33:06;4.37;;;1.67;;
41966;SDS011;27656;53.068;8.818;2023-06-04T14:35:32;7.97;;;2.07;;
41966;SDS011;27656;53.068;8.818;2023-06-04T14:37:59;2.77;;;2.00;;
41966;SDS011;27656;53.068;8.818;2023-06-04T14:40:25;11.17;;;2.00;;
41966;SDS011;27656;53.068;8.818;2023-06-04T14:42:52;8.40;;;2.70;;
41966;SDS011;27656;53.068;8.818;2023-06-04T14:45:18;5.60;;;1.90;;
41966;SDS011;27656;53.068;8.818;2023-06-04T14:47:45;6.83;;;1.90;;
41966;SDS011;27656;53.068;8.818;2023-06-04T14:50:12;6.47;;;2.20;;
41966;SDS011;27656;53.068;8.818;2023-06-04T14:52:38;7.83;;;1.80;;
41966;SDS011;27656;53.068;8.818;2023-06-04T14:55:05;6.07;;;2.33;;